Tiempo atmosférico en la estación meteorológica de Miranda De Ebro, Burgos (512 m.)



Fecha
DESCASC
Temp. máxima en grados centígrados (hora)
DESCASC
Temp. mínima en grados centígrados (hora)
DESCASC
Temp. media en grados centígrados
DESCASC
Racha de viento máxima en m/sg (hora)
DESCASC
Velocidad máxima media en intervalos de 10 minutos(hora)
DESCASC
Precipitaciones diarias en mm
DESCASC
Precipitaciones de 00:00 a 06:00 en mm
DESCASC
Precipitaciones de 06:00 a 12:00 en mm
DESCASC
Precipitaciones de 12:00 a 18:00 en mm
DESCASC
Precipitaciones de 18:00 a 24:00 en mm
DESCASC
13-10-2019 29.5 (17:40) 18.2 (23:30) 23.9 10.28 (07:40) 5.83 (14:40) 0 0 0 0 0
12-10-2019 28.2 (14:50) 14.4 (04:30) 21.3 10.83 (20:30) 5.56 (15:10) 0 0 0 0 0
11-10-2019 26.4 (17:30) 4.7 (08:20) 15.5 6.39 (14:30) 3.33 (12:50) 0 0 0 0 0
10-10-2019 24 (17:20) 4 (00:00) 14 4.17 (15:40) 2.22 (15:40) 0 0 0 0 0
09-10-2019 21.5 (15:00) 8.6 (00:00) 15.1 6.39 (19:10) 3.33 (19:10) 0 0 0 0 0
08-10-2019 30.6 (15:40) 6.4 (00:00) 18.5 7.78 (18:10) 3.61 (18:10) 0 0 0 0 0
07-10-2019 27.3 (17:20) 7.5 (00:00) 17.4 5.56 (19:20) 3.06 (19:10) 0 0 0 0 0
06-10-2019 24.3 (14:40) 11.6 (00:00) 17.9 7.5 (16:40) 3.61 (16:40) 0 0 0 0 0
05-10-2019 25.3 (15:10) 14.4 (00:00) 19.8 7.22 (17:40) 3.61 (17:20) 0 0 0 0 0
04-10-2019 25.6 (15:30) 7.3 (00:00) 16.5 8.61 (17:10) 3.89 (17:20) 0 0 0 0 0
03-10-2019 27.9 (17:50) 6.5 (00:00) 17.2 7.78 (15:30) 4.17 (15:30) 0 0 0 0 0
02-10-2019 22.2 (15:40) 10.3 (00:00) 16.3 7.78 (16:10) 4.17 (16:10) 0 0 0 0 0
01-10-2019 27.1 (14:40) 11 (00:00) 19.1 8.61 (19:10) 4.17 (19:10) 0 0 0 0 0
30-09-2019 30.2 (17:20) 9.5 (00:00) 19.9 6.11 (15:40) 1.94 (14:30) 0 0 0 0 0
29-09-2019 30.5 (16:50) 8.2 (00:00) 19.3 10.83 (14:20) 5.28 (14:10) 0 0 0 0 0
28-09-2019 28.4 (17:40) 13.9 (00:00) 21.1 5.83 (19:10) 3.06 (19:10) 0 0 0 0 0
27-09-2019 27.9 (15:40) 10.5 (00:00) 19.2 8.61 (18:00) 4.72 (17:20) 0 0 0 0 0
26-09-2019 28.9 (18:00) 9.5 (00:00) 19.2 7.78 (16:20) 4.44 (16:20) 0 0 0 0 0
25-09-2019 25.5 (17:30) 12.8 (00:00) 19.2 5.83 (19:00) 2.5 (19:10) 0 0 0 0 0
24-09-2019 26.5 (18:10) 15.9 (00:00) 21.2 12.5 (12:20) 6.67 (11:20) 0 0 0 0 0
23-09-2019 23.5 (16:40) 9.3 (00:00) 16.4 9.44 (14:20) 5 (15:00) 0 0 0 0 0
22-09-2019 23.3 (17:00) 12.3 (00:00) 17.8 10.83 (11:30) 5.28 (09:20) 4.2 4 0.2 0 0
21-09-2019 24.3 (16:50) 15.2 (00:00) 19.7 11.39 (01:50) 6.11 (01:50) 2.6 2.6 0 0 0
20-09-2019 28.4 (14:30) 12.4 (00:00) 20.4 16.11 (21:00) 6.11 (21:00) 19.8 0 0 0 19.8
19-09-2019 29.2 (17:40) 11.1 (00:00) 20.2 5 (18:40) 2.5 (19:00) 0 0 0 0 0
18-09-2019 24.3 (14:30) 15.6 (00:00) 19.9 11.67 (02:50) 5.83 (02:50) 5 5 0 0 0
17-09-2019 30.9 (16:40) 15 (00:00) 22.9 6.39 (18:10) 2.78 (18:10) 0 0 0 0 0
16-09-2019 27.2 (15:40) 14.2 (00:00) 20.7 4.72 (16:00) 1.94 (00:30) 0 0 0 0 0

Gráficas

Temp. máximas Temp. mínimas Temp. medias Precipitaciones Rachas de viento máximas Velocidades máximas media en intervalos de 10 minutos

Datos horarios

Fecha y hora oficial Temperatura (ºC) Velocidad del viento (km/h) Dirección del viento Racha (km/h) Dirección de racha Precipitación (mm) Presión (hPa) Tendencia (hPa) Humedad (%)
2019-10-15 23:00:00 12.4 0 Calma 15 Sudoeste 0 -- -- 62
2019-10-15 22:00:00 14 7 Sudoeste 20 Oeste 0 -- -- 54
2019-10-15 21:00:00 14 5 Sudoeste 15 Sudoeste 0 -- -- 52
2019-10-15 20:00:00 15.3 8 Sudoeste 27 Oeste 0 -- -- 47
2019-10-15 19:00:00 15.9 14 Oeste 29 Sudoeste 0 -- -- 47
2019-10-15 18:00:00 16.4 17 Oeste 37 Oeste 0 -- -- 45
2019-10-15 17:00:00 17 16 Sudoeste 36 Oeste 0 -- -- 44
2019-10-15 16:00:00 16.4 22 Oeste 39 Oeste 0 -- -- 44
2019-10-15 15:00:00 17.1 17 Oeste 35 Sudoeste 0 -- -- 45
2019-10-15 14:00:00 15.9 19 Oeste 40 Oeste 0 -- -- 50
2019-10-15 13:00:00 14.7 18 Oeste 42 Sudoeste 0 -- -- 53
2019-10-15 12:00:00 12.9 22 Oeste 37 Sudoeste 0 -- -- 58
2019-10-15 11:00:00 11.6 17 Oeste 31 Sudoeste 0 -- -- 63
2019-10-15 10:00:00 10.4 16 Oeste 33 Oeste 0 -- -- 68
2019-10-15 09:00:00 8.3 15 Oeste 29 Oeste 0 -- -- 75
2019-10-15 08:00:00 7.8 13 Oeste 27 Oeste 0 -- -- 77
2019-10-15 07:00:00 8.1 12 Oeste 29 Oeste 0 -- -- 75
2019-10-15 06:00:00 8.5 14 Oeste 35 Sudoeste 0 -- -- 74
2019-10-15 05:00:00 8.9 10 Oeste 27 Sudoeste 0 -- -- 73
2019-10-15 04:00:00 9.5 17 Oeste 33 Sudoeste 0 -- -- 70
2019-10-15 03:00:00 9.8 19 Oeste 34 Oeste 0 -- -- 70
2019-10-15 02:00:00 10.1 19 Oeste 41 Sudoeste 0 -- -- 69
2019-10-15 01:00:00 11.4 14 Oeste 27 Sudoeste 0.2 -- -- 72
2019-10-15 00:00:00 12 4 Sudoeste 22 Oeste 0 -- -- 70
2019-10-14 23:00:00 12 12 Oeste 32 Oeste 0 -- -- 70
2019-10-14 22:00:00 12.4 17 Oeste 31 Sudoeste 0 -- -- 67
2019-10-14 21:00:00 13.3 13 Sudoeste 32 Sudoeste 0 -- -- 68
2019-10-14 20:00:00 13.5 14 Sudoeste 33 Sur 0 -- -- 69
2019-10-14 19:00:00 13 6 Noroeste 36 Oeste 0.2 -- -- 80
2019-10-14 18:00:00 14.8 27 Oeste 52 Oeste 0 -- -- 68
2019-10-14 17:00:00 19.5 22 Oeste 44 Sudoeste 0 -- -- 43
2019-10-14 16:00:00 20.3 25 Oeste 49 Oeste 0 -- -- 40
2019-10-14 15:00:00 20.2 22 Sudoeste 48 Oeste 0 -- -- 45
2019-10-14 14:00:00 19.7 19 Sudoeste 57 Oeste 0 -- -- 50
2019-10-14 13:00:00 19 29 Oeste 56 Oeste 0 -- -- 59
2019-10-14 12:00:00 21 8 Sudoeste 26 Sur 0 -- -- 58
2019-10-14 11:00:00 20.8 16 Sudeste 35 Sur 0 -- -- 63
2019-10-14 10:00:00 19.8 17 Sudeste 33 Sudeste 0 -- -- 69
2019-10-14 09:00:00 18.8 17 Sudeste 35 Sudeste 0 -- -- 67
2019-10-14 08:00:00 16.5 6 Sudeste 14 Este 0 -- -- 72
2019-10-14 07:00:00 16.6 4 Noroeste 14 Norte 0 -- -- 75
2019-10-14 06:00:00 18.8 7 Nordeste 27 Sur 0 -- -- 64
2019-10-14 05:00:00 19.3 12 Sudeste 35 Sur 0 -- -- 62
2019-10-14 04:00:00 19.6 14 Sudeste 29 Sudeste 0 -- -- 59
2019-10-14 03:00:00 19.9 15 Sudeste 32 Sudeste 0 -- -- 53
2019-10-14 02:00:00 19.6 6 Sur 20 Sudeste 0 -- -- 45
2019-10-14 01:00:00 19.9 8 Sudeste 26 Sur 0 -- -- 42
2019-10-14 00:00:00 19.1 7 Sur 18 Sur 0 -- -- 44
2019-10-13 23:00:00 20 4 Sur 22 Sur 0 -- -- 41
2019-10-13 22:00:00 21.6 11 Sur 23 Sur 0 -- -- 37
2019-10-13 21:00:00 21.7 9 Sudeste 17 Sudeste 0 -- -- 36
2019-10-13 20:00:00 22.8 5 Sur 20 Sudoeste 0 -- -- 36
2019-10-13 19:00:00 27.1 5 Sudoeste 29 Oeste 0 -- -- 27
2019-10-13 18:00:00 28.8 10 Sudoeste 31 Sudoeste 0 -- -- 29
2019-10-13 17:00:00 28.7 11 Noroeste 32 Oeste 0 -- -- 28
2019-10-13 16:00:00 27.3 20 Oeste 36 Oeste 0 -- -- 31
2019-10-13 15:00:00 27.7 19 Oeste 36 Oeste 0 -- -- 36
2019-10-13 14:00:00 27.3 17 Oeste 35 Oeste 0 -- -- 37
2019-10-13 13:00:00 26.2 8 Sur 22 Sudeste 0 -- -- 44
2019-10-13 12:00:00 22.8 5 Sudoeste 14 Sudoeste 0 -- -- 56
2019-10-13 11:00:00 20.4 0 Calma 19 Sudoeste 0 -- -- 64
2019-10-13 10:00:00 18.5 12 Oeste 28 Sudeste 0 -- -- 70
2019-10-13 09:00:00 19.3 12 Sur 27 Sur 0 -- -- 62
2019-10-13 08:00:00 18.9 17 Sudeste 37 Sur 0 -- -- 63
2019-10-13 07:00:00 19.3 14 Sur 35 Sur 0 -- -- 61
2019-10-13 06:00:00 19.8 12 Sur 26 Sur 0 -- -- 57
2019-10-13 05:00:00 19.4 9 Sur 34 Sudeste 0 -- -- 60
2019-10-13 04:00:00 19.5 15 Sudeste 34 Sudeste 0 -- -- 63
2019-10-13 03:00:00 19.8 16 Sudeste 33 Sudeste 0 -- -- 63
2019-10-13 02:00:00 20.5 17 Sudeste 35 Sudeste 0 -- -- 63
2019-10-13 01:00:00 20.5 10 Sur 23 Sudoeste 0 -- -- 64
2019-10-13 00:00:00 21 8 Sudeste 23 Sudeste 0 -- -- 63
2019-10-12 23:00:00 21.5 12 Sudeste 27 Sur 0 -- -- 61
2019-10-12 22:00:00 21.5 8 Sudeste 28 Sudeste 0 -- -- 51
2019-10-12 21:00:00 21.6 5 Sur 39 Sur 0 -- -- 58
2019-10-12 20:00:00 23.7 14 Sudeste 34 Sudeste 0 -- -- 49
2019-10-12 19:00:00 25.4 15 Sudeste 34 Sudeste 0 -- -- 46
2019-10-12 18:00:00 25.7 12 Sudeste 30 Este 0 -- -- 48
2019-10-12 17:00:00 25.9 14 Sudeste 31 Sudeste 0 -- -- 49
2019-10-12 16:00:00 26 20 Sudeste 35 Sudeste 0 -- -- 49
2019-10-12 15:00:00 27.9 18 Sudeste 32 Sudeste 0 -- -- 47
2019-10-12 14:00:00 26.2 11 Sudeste 23 Sudeste 0 -- -- 54
2019-10-12 13:00:00 24.5 9 Sudeste 21 Sudeste 0 -- -- 59
2019-10-12 12:00:00 21.6 9 Sur 21 Sudeste 0 -- -- 69
2019-10-12 11:00:00 18.7 3 Nordeste 6 Noroeste 0 -- -- 81
2019-10-12 10:00:00 17.1 2 Sudeste 8 Este 0 -- -- 89
2019-10-12 09:00:00 14.8 2 Este 4 Este 0 -- -- 93
2019-10-12 08:00:00 14.5 0 Calma 5 Sudeste 0 -- -- 91
2019-10-12 07:00:00 16.7 3 Norte 24 Sur 0 -- -- 83
2019-10-12 06:00:00 14.6 3 Norte 10 Este 0 -- -- 90
2019-10-12 05:00:00 16.2 6 Norte 21 Sur 0 -- -- 85
2019-10-12 04:00:00 14.6 0 Calma 8 Sudeste 0 -- -- 90
2019-10-12 03:00:00 15.5 0 Calma 10 Sudoeste 0 -- -- 88
2019-10-12 02:00:00 15.1 3 Noroeste 4 Noroeste 0 -- -- 90
2019-10-12 01:00:00 15.5 4 Sudeste 5 Sudeste 0 -- -- 90
2019-10-12 00:00:00 16.1 2 Norte 5 Noroeste 0 -- -- 88
2019-10-11 23:00:00 16.7 0 Calma 7 Sur 0 -- -- 86
2019-10-11 22:00:00 17.7 0 Calma 4 Sur 0 -- -- 79
2019-10-11 21:00:00 18.6 2 Sudoeste 5 Nordeste 0 -- -- 74
2019-10-11 20:00:00 20.4 3 Norte 15 Sudeste 0 -- -- 68
2019-10-11 19:00:00 22.4 6 Sur 18 Sur 0 -- -- 61
2019-10-11 18:00:00 25.6 6 Sur 13 Sudeste 0 -- -- 52
2019-10-11 17:00:00 25.6 6 Sur 17 Sudeste 0 -- -- 51
2019-10-11 16:00:00 24.2 9 Sudeste 18 Sudeste 0 -- -- 53
2019-10-11 15:00:00 23.9 9 Sudeste 23 Sudeste 0 -- -- 54
2019-10-11 14:00:00 22.7 9 Sudeste 21 Sudeste 0 -- -- 58
2019-10-11 13:00:00 20.9 10 Sudeste 22 Sudeste 0 -- -- 63
2019-10-11 12:00:00 18.6 8 Sudeste 15 Sudoeste 0 -- -- 68
2019-10-11 11:00:00 16 5 Norte 9 Noroeste 0 -- -- 68
2019-10-11 10:00:00 11.1 2 Este 7 Sudeste 0 -- -- 84
2019-10-11 09:00:00 5.4 0 Calma 3 Oeste 0 -- -- 93
2019-10-11 08:00:00 4.9 0 Calma 4 Noroeste 0 -- -- 93
2019-10-11 07:00:00 4.9 0 Calma 3 Noroeste 0 -- -- 92
2019-10-11 06:00:00 5.4 2 Noroeste 6 Oeste 0 -- -- 91
2019-10-11 05:00:00 6 0 Calma 5 Sudoeste 0 -- -- 92
2019-10-11 04:00:00 6.5 0 Calma 7 Oeste 0 -- -- 91
2019-10-11 03:00:00 6.9 0 Calma 3 Sur 0 -- -- 89
2019-10-11 02:00:00 7.2 0 Calma 3 Noroeste 0 -- -- 88
2019-10-11 01:00:00 8.2 2 Noroeste 4 Oeste 0 -- -- 86
2019-10-11 00:00:00 8.8 0 Calma 4 Noroeste 0 -- -- 82
2019-10-10 23:00:00 9.8 3 Noroeste 4 Noroeste 0 -- -- 78
2019-10-10 22:00:00 12.1 3 Noroeste 5 Noroeste 0 -- -- 67
2019-10-10 21:00:00 14.7 0 Calma 10 Este 0 -- -- 64
2019-10-10 20:00:00 17.2 5 Este 10 Nordeste 0 -- -- 54
2019-10-10 19:00:00 21.3 5 Nordeste 14 Nordeste 0 -- -- 42
2019-10-10 18:00:00 23.2 6 Este 15 Este 0 -- -- 38
2019-10-10 17:00:00 23.2 6 Este 12 Este 0 -- -- 37
2019-10-10 16:00:00 22 6 Este 15 Nordeste 0 -- -- 40
2019-10-10 15:00:00 21.6 6 Este 14 Sudeste 0 -- -- 42
2019-10-10 14:00:00 20.7 3 Sur 12 Sudeste 0 -- -- 48
2019-10-10 13:00:00 19.8 4 Este 8 Sudeste 0 -- -- 48
2019-10-10 12:00:00 15.8 3 Sudoeste 6 Oeste 0 -- -- 62
2019-10-10 11:00:00 13.1 3 Noroeste 6 Oeste 0 -- -- 71
2019-10-10 10:00:00 7.9 3 Noroeste 6 Noroeste 0 -- -- 92
2019-10-10 09:00:00 4.1 3 Noroeste 4 Noroeste 0 -- -- 95
2019-10-10 08:00:00 4.3 0 Calma 4 Norte 0 -- -- 95
2019-10-10 07:00:00 4.5 2 Noroeste 4 Oeste 0 -- -- 95
2019-10-10 06:00:00 4.9 3 Sudoeste 5 Sudoeste 0 -- -- 95
2019-10-10 05:00:00 4.9 0 Calma 4 Noroeste 0 -- -- 93
2019-10-10 04:00:00 5.6 0 Calma 3 Oeste 0 -- -- 92
2019-10-10 03:00:00 5.8 0 Calma 4 Norte 0 -- -- 90
2019-10-10 02:00:00 6.9 3 Noroeste 7 Oeste 0 -- -- 88
2019-10-10 01:00:00 8 4 Oeste 6 Oeste 0 -- -- 87
2019-10-10 00:00:00 8.6 4 Noroeste 5 Noroeste 0 -- -- 83
2019-10-09 23:00:00 10.1 2 Norte 5 Nordeste 0 -- -- 84
2019-10-09 22:00:00 12.7 3 Nordeste 10 Este 0 -- -- 76
2019-10-09 21:00:00 13.4 4 Nordeste 15 Nordeste 0 -- -- 67
2019-10-09 20:00:00 14.8 7 Nordeste 23 Nordeste 0 -- -- 63
2019-10-09 19:00:00 16.8 7 Nordeste 20 Nordeste 0 -- -- 59
2019-10-09 18:00:00 18.5 6 Norte 20 Nordeste 0 -- -- 54
2019-10-09 17:00:00 18.8 9 Nordeste 22 Este 0 -- -- 55
2019-10-09 16:00:00 19.9 6 Nordeste 17 Este 0 -- -- 53
2019-10-09 15:00:00 21.5 5 Nordeste 19 Este 0 -- -- 49
2019-10-09 14:00:00 18.6 8 Sudeste 17 Nordeste 0 -- -- 61
2019-10-09 13:00:00 16.8 8 Nordeste 15 Norte 0 -- -- 67
2019-10-09 12:00:00 16.8 5 Norte 13 Este 0 -- -- 68
2019-10-09 11:00:00 15.6 6 Este 13 Este 0 -- -- 73
2019-10-09 10:00:00 14.9 5 Nordeste 9 Nordeste 0 -- -- 77
2019-10-09 09:00:00 14 3 Norte 10 Nordeste 0 -- -- 81
2019-10-09 08:00:00 13.9 3 Nordeste 11 Nordeste 0 -- -- 82
2019-10-09 07:00:00 13.9 0 Calma 8 Norte 0 -- -- 84
2019-10-09 06:00:00 14 4 Norte 12 Noroeste 0 -- -- 85
2019-10-09 05:00:00 14.6 7 Noroeste 14 Norte 0 -- -- 81
2019-10-09 04:00:00 14.7 5 Nordeste 10 Nordeste 0 -- -- 83
2019-10-09 03:00:00 15.3 4 Norte 13 Nordeste 0 -- -- 83
2019-10-09 02:00:00 15.5 3 Nordeste 9 Noroeste 0 -- -- 82
2019-10-09 01:00:00 15.8 6 Nordeste 12 Nordeste 0 -- -- 80
2019-10-09 00:00:00 15.9 7 Nordeste 15 Este 0 -- -- 81
2019-10-08 23:00:00 16.5 9 Nordeste 19 Nordeste 0 -- -- 80
2019-10-08 22:00:00 17.6 7 Este 14 Nordeste 0 -- -- 81
2019-10-08 21:00:00 18.3 5 Nordeste 18 Nordeste 0 -- -- 81
2019-10-08 20:00:00 19.2 10 Nordeste 27 Nordeste 0 -- -- 78
2019-10-08 19:00:00 22.9 12 Nordeste 28 Nordeste 0 -- -- 60
2019-10-08 18:00:00 25.6 12 Nordeste 26 Norte 0 -- -- 50
2019-10-08 17:00:00 28.3 11 Nordeste 26 Nordeste 0 -- -- 38
2019-10-08 16:00:00 29.8 6 Sudeste 13 Sudeste 0 -- -- 33
2019-10-08 15:00:00 28.9 6 Este 11 Nordeste 0 -- -- 34
2019-10-08 14:00:00 26.5 4 Este 8 Este 0 -- -- 35
2019-10-08 13:00:00 23.1 3 Este 6 Este 0 -- -- 40
2019-10-08 12:00:00 19.5 2 Sudoeste 6 Sur 0 -- -- 45
2019-10-08 11:00:00 16.6 3 Norte 5 Norte 0 -- -- 54
2019-10-08 10:00:00 11.5 0 Calma 4 Nordeste 0 -- -- 74
2019-10-08 09:00:00 7.1 0 Calma 4 Noroeste 0 -- -- 87
2019-10-08 08:00:00 6.7 0 Calma 4 Oeste 0 -- -- 85
2019-10-08 07:00:00 6.6 3 Noroeste 4 Noroeste 0 -- -- 88
2019-10-08 06:00:00 7.3 0 Calma 5 Oeste 0 -- -- 85
2019-10-08 05:00:00 7.5 0 Calma 4 Oeste 0 -- -- 84
2019-10-08 04:00:00 8.1 0 Calma 4 Oeste 0 -- -- 81
2019-10-08 03:00:00 8.5 0 Calma 4 Noroeste 0 -- -- 79
2019-10-08 02:00:00 9.6 2 Oeste 5 Noroeste 0 -- -- 74
2019-10-08 01:00:00 10.2 2 Noroeste 4 Noroeste 0 -- -- 72
2019-10-08 00:00:00 11.3 0 Calma 4 Oeste 0 -- -- 68
2019-10-07 23:00:00 13.9 3 Oeste 8 Oeste 0 -- -- 56
2019-10-07 22:00:00 14.8 3 Norte 10 Este 0 -- -- 56
2019-10-07 21:00:00 18.6 6 Este 13 Este 0 -- -- 39
2019-10-07 20:00:00 19.4 5 Este 20 Nordeste 0 -- -- 42
2019-10-07 19:00:00 23.4 9 Nordeste 18 Nordeste 0 -- -- 33
2019-10-07 18:00:00 25.8 9 Nordeste 17 Nordeste 0 -- -- 28
2019-10-07 17:00:00 27.2 5 Este 13 Este 0 -- -- 28
2019-10-07 16:00:00 25.8 4 Sudeste 10 Nordeste 0 -- -- 29
2019-10-07 15:00:00 25.3 4 Nordeste 13 Sudeste 0 -- -- 30
2019-10-07 14:00:00 23.6 6 Este 10 Nordeste 0 -- -- 36
2019-10-07 13:00:00 22 0 Calma 9 Este 0 -- -- 47
2019-10-07 12:00:00 18.3 3 Oeste 8 Sudoeste 0 -- -- 61
2019-10-07 11:00:00 15.6 2 Norte 6 Oeste 0 -- -- 68
2019-10-07 10:00:00 10.7 4 Noroeste 8 Oeste 0 -- -- 88
2019-10-07 09:00:00 8.2 3 Oeste 7 Oeste 0 -- -- 93
2019-10-07 08:00:00 7.6 0 Calma 5 Oeste 0 -- -- 94
2019-10-07 07:00:00 7.9 2 Oeste 5 Oeste 0 -- -- 94
2019-10-07 06:00:00 9 3 Sudoeste 7 Sudoeste 0 -- -- 92
2019-10-07 05:00:00 8.8 3 Noroeste 5 Oeste 0 -- -- 92
2019-10-07 04:00:00 9.7 0 Calma 4 Noroeste 0 -- -- 90
2019-10-07 03:00:00 10.4 3 Noroeste 4 Noroeste 0 -- -- 90
2019-10-07 02:00:00 12 2 Nordeste 8 Este 0 -- -- 84
2019-10-07 01:00:00 13.1 3 Este 9 Este 0 -- -- 82
2019-10-07 00:00:00 14.2 4 Este 9 Este 0 -- -- 79
2019-10-06 23:00:00 15.1 5 Sudeste 11 Sudeste 0 -- -- 76
2019-10-06 22:00:00 15.5 5 Este 15 Este 0 -- -- 74
2019-10-06 21:00:00 15.8 5 Nordeste 18 Nordeste 0 -- -- 76
2019-10-06 20:00:00 16.1 5 Norte 22 Nordeste 0 -- -- 78
2019-10-06 19:00:00 17.6 10 Nordeste 21 Nordeste 0 -- -- 68
2019-10-06 18:00:00 17.9 10 Nordeste 25 Nordeste 0 -- -- 72
2019-10-06 17:00:00 18.7 13 Este 27 Nordeste 0 -- -- 70
2019-10-06 16:00:00 22.3 8 Norte 21 Nordeste 0 -- -- 59
2019-10-06 15:00:00 23.6 6 Noroeste 19 Noroeste 0 -- -- 51
2019-10-06 14:00:00 22.5 5 Norte 12 Norte 0 -- -- 55
2019-10-06 13:00:00 20 3 Este 7 Nordeste 0 -- -- 62
2019-10-06 12:00:00 17.4 3 Sudeste 7 Sudeste 0 -- -- 72
2019-10-06 11:00:00 16.1 3 Norte 5 Oeste 0 -- -- 76
2019-10-06 10:00:00 13.2 2 Oeste 5 Oeste 0 -- -- 87
2019-10-06 09:00:00 11.8 4 Noroeste 6 Sur 0 -- -- 91
2019-10-06 08:00:00 11.7 3 Noroeste 9 Sur 0 -- -- 91
2019-10-06 07:00:00 11.9 3 Sudoeste 6 Oeste 0 -- -- 91
2019-10-06 06:00:00 12.2 0 Calma 9 Noroeste 0 -- -- 88
2019-10-06 05:00:00 14.2 3 Este 9 Este 0 -- -- 84
2019-10-06 04:00:00 13.7 3 Nordeste 14 Nordeste 0 -- -- 85
2019-10-06 03:00:00 15.2 5 Nordeste 13 Nordeste 0 -- -- 80
2019-10-06 02:00:00 15.7 3 Norte 9 Nordeste 0 -- -- 79
2019-10-06 01:00:00 15.6 3 Nordeste 9 Nordeste 0 -- -- 79
2019-10-06 00:00:00 15.6 5 Nordeste 15 Norte 0 -- -- 80
2019-10-05 23:00:00 15.8 5 Nordeste 14 Nordeste 0 -- -- 80
2019-10-05 22:00:00 16.2 3 Norte 18 Nordeste 0 -- -- 78
2019-10-05 21:00:00 16.1 8 Nordeste 22 Nordeste 0 -- -- 79
2019-10-05 20:00:00 17.4 12 Nordeste 22 Nordeste 0 -- -- 73
2019-10-05 19:00:00 21.2 10 Nordeste 24 Nordeste 0 -- -- 60
2019-10-05 18:00:00 22.9 13 Nordeste 26 Este 0 -- -- 54
2019-10-05 17:00:00 23.9 11 Este 23 Nordeste 0 -- -- 52
2019-10-05 16:00:00 24.4 10 Este 21 Nordeste 0 -- -- 45
2019-10-05 15:00:00 24.9 5 Nordeste 14 Nordeste 0 -- -- 44
2019-10-05 14:00:00 23.7 3 Oeste 12 Noroeste 0 -- -- 46
2019-10-05 13:00:00 21.7 4 Nordeste 8 Este 0 -- -- 51
2019-10-05 12:00:00 19.9 4 Nordeste 11 Este 0 -- -- 57
2019-10-05 11:00:00 17.7 5 Nordeste 12 Este 0 -- -- 65
2019-10-05 10:00:00 16 6 Nordeste 12 Nordeste 0 -- -- 71
2019-10-05 09:00:00 14.9 4 Nordeste 10 Nordeste 0 -- -- 75
2019-10-05 08:00:00 14.6 4 Este 7 Este 0 -- -- 85
2019-10-05 07:00:00 14.6 2 Nordeste 5 Este 0 -- -- 86
2019-10-05 06:00:00 14.9 0 Calma 2 Norte 0 -- -- 86
2019-10-05 05:00:00 14.9 2 Norte 3 Oeste 0 -- -- 86
2019-10-05 04:00:00 15 2 Oeste 5 Oeste 0 -- -- 84
2019-10-05 03:00:00 15.1 2 Noroeste 4 Sur 0 -- -- 84
2019-10-05 02:00:00 15.2 0 Calma 12 Nordeste 0 -- -- 82
2019-10-05 01:00:00 15.2 6 Nordeste 15 Nordeste 0 -- -- 82
2019-10-05 00:00:00 15.3 9 Nordeste 18 Este 0 -- -- 82
2019-10-04 23:00:00 15.4 8 Nordeste 18 Nordeste 0 -- -- 82
2019-10-04 22:00:00 15.9 7 Nordeste 17 Nordeste 0 -- -- 81
2019-10-04 21:00:00 16.2 9 Nordeste 18 Nordeste 0 -- -- 81
2019-10-04 20:00:00 16.8 7 Nordeste 22 Nordeste 0 -- -- 78
2019-10-04 19:00:00 17.9 9 Nordeste 25 Nordeste 0 -- -- 75
2019-10-04 18:00:00 20.9 14 Nordeste 31 Nordeste 0 -- -- 66
2019-10-04 17:00:00 23.3 12 Nordeste 24 Nordeste 0 -- -- 58
2019-10-04 16:00:00 24.2 9 Norte 21 Este 0 -- -- 55
2019-10-04 15:00:00 24.1 5 Sudeste 15 Este 0 -- -- 53
2019-10-04 14:00:00 23.8 4 Noroeste 12 Este 0 -- -- 55
2019-10-04 13:00:00 21.9 3 Este 9 Sudeste 0 -- -- 59
2019-10-04 12:00:00 18.9 2 Norte 6 Nordeste 0 -- -- 65
2019-10-04 11:00:00 16.7 2 Sudoeste 6 Sur 0 -- -- 68
2019-10-04 10:00:00 11 0 Calma 6 Noroeste 0 -- -- 89
2019-10-04 09:00:00 8.5 3 Noroeste 5 Oeste 0 -- -- 94
2019-10-04 08:00:00 7.5 0 Calma 3 Noroeste 0 -- -- 93
2019-10-04 07:00:00 7.5 0 Calma 5 Oeste 0 -- -- 91
2019-10-04 06:00:00 8.3 3 Oeste 6 Oeste 0 -- -- 90
2019-10-04 05:00:00 9 3 Oeste 6 Oeste 0 -- -- 90
2019-10-04 04:00:00 8.9 0 Calma 4 Oeste 0 -- -- 89
2019-10-04 03:00:00 9.7 0 Calma 4 Oeste 0 -- -- 89
2019-10-04 02:00:00 10.4 0 Calma 4 Norte 0 -- -- 86
2019-10-04 01:00:00 11.3 3 Oeste 5 Oeste 0 -- -- 86
2019-10-04 00:00:00 12.2 0 Calma 5 Oeste 0 -- -- 79
2019-10-03 23:00:00 13.8 0 Calma 12 Sudeste 0 -- -- 77
2019-10-03 22:00:00 15.6 5 Este 10 Sudeste 0 -- -- 71
2019-10-03 21:00:00 17.7 3 Nordeste 11 Nordeste 0 -- -- 64
2019-10-03 20:00:00 19.1 6 Este 15 Nordeste 0 -- -- 60
2019-10-03 19:00:00 24.2 7 Norte 19 Este 0 -- -- 46
2019-10-03 18:00:00 27.9 5 Norte 19 Noroeste 0 -- -- 32
2019-10-03 17:00:00 27.2 8 Noroeste 24 Oeste 0 -- -- 32
2019-10-03 16:00:00 25.5 9 Noroeste 28 Noroeste 0 -- -- 35
2019-10-03 15:00:00 25.4 12 Noroeste 19 Norte 0 -- -- 39
2019-10-03 14:00:00 24 5 Norte 14 Noroeste 0 -- -- 46
2019-10-03 13:00:00 22.2 5 Noroeste 13 Noroeste 0 -- -- 50
2019-10-03 12:00:00 19.4 4 Oeste 9 Noroeste 0 -- -- 57
2019-10-03 11:00:00 15.1 2 Nordeste 5 Nordeste 0 -- -- 71
2019-10-03 10:00:00 11.3 2 Oeste 5 Noroeste 0 -- -- 89
2019-10-03 09:00:00 7.7 0 Calma 4 Noroeste 0 -- -- 95
2019-10-03 08:00:00 6.6 2 Noroeste 3 Norte 0 -- -- 95
2019-10-03 07:00:00 6.7 2 Noroeste 4 Oeste 0 -- -- 94
2019-10-03 06:00:00 7.6 3 Oeste 6 Sudoeste 0 -- -- 93
2019-10-03 05:00:00 8.6 4 Noroeste 8 Sudoeste 0 -- -- 91
2019-10-03 04:00:00 10.1 3 Oeste 7 Sudoeste 0 -- -- 89
2019-10-03 03:00:00 11 3 Oeste 9 Oeste 0 -- -- 85
2019-10-03 02:00:00 11 3 Noroeste 6 Oeste 0 -- -- 88
2019-10-03 01:00:00 10.4 3 Oeste 8 Oeste 0 -- -- 88
2019-10-03 00:00:00 10.4 0 Calma 6 Oeste 0 -- -- 88
2019-10-02 23:00:00 11.8 3 Este 7 Este 0 -- -- 85
2019-10-02 22:00:00 13.9 3 Norte 11 Nordeste 0 -- -- 77
2019-10-02 21:00:00 14.9 5 Nordeste 12 Nordeste 0 -- -- 73
2019-10-02 20:00:00 16.5 4 Norte 21 Noroeste 0 -- -- 66
2019-10-02 19:00:00 18.9 10 Norte 23 Norte 0 -- -- 58
2019-10-02 18:00:00 20 8 Norte 23 Norte 0 -- -- 55
2019-10-02 17:00:00 21.4 12 Norte 28 Norte 0 -- -- 50
2019-10-02 16:00:00 21.3 13 Noroeste 27 Norte 0 -- -- 50
2019-10-02 15:00:00 21.5 7 Norte 22 Noroeste 0 -- -- 49
2019-10-02 14:00:00 19.3 9 Norte 18 Norte 0 -- -- 56
2019-10-02 13:00:00 17.5 12 Oeste 23 Oeste 0 -- -- 62
2019-10-02 12:00:00 17.4 5 Noroeste 12 Noroeste 0 -- -- 62
2019-10-02 11:00:00 16.7 6 Noroeste 21 Noroeste 0 -- -- 64
2019-10-02 10:00:00 15.8 10 Noroeste 24 Noroeste 0 -- -- 66
2019-10-02 09:00:00 15.3 12 Noroeste 22 Noroeste 0 -- -- 66
2019-10-02 08:00:00 15 10 Oeste 18 Oeste 0 -- -- 67
2019-10-02 07:00:00 12.6 5 Oeste 9 Oeste 0 -- -- 79
2019-10-02 06:00:00 10.4 2 Noroeste 6 Nordeste 0 -- -- 88
2019-10-02 05:00:00 11.5 3 Noroeste 6 Noroeste 0 -- -- 87
2019-10-02 04:00:00 13.2 0 Calma 5 Nordeste 0 -- -- 86
2019-10-02 03:00:00 15.5 4 Norte 14 Sudoeste 0 -- -- 79
2019-10-02 02:00:00 15.3 0 Calma 8 Este 0 -- -- 82
2019-10-02 01:00:00 16.4 3 Este 10 Este 0 -- -- 77
2019-10-02 00:00:00 16.7 5 Este 11 Este 0 -- -- 77
2019-10-01 23:00:00 16.9 4 Nordeste 14 Este 0 -- -- 77
2019-10-01 22:00:00 17.1 6 Nordeste 15 Nordeste 0 -- -- 75
2019-10-01 21:00:00 17.2 9 Nordeste 18 Este 0 -- -- 75
2019-10-01 20:00:00 17.5 8 Nordeste 31 Nordeste 0 -- -- 77
2019-10-01 19:00:00 19.2 12 Nordeste 24 Nordeste 0 -- -- 74
2019-10-01 18:00:00 21.1 10 Este 27 Nordeste 0 -- -- 66
2019-10-01 17:00:00 23.9 11 Nordeste 23 Nordeste 0 -- -- 57
2019-10-01 16:00:00 24.5 5 Nordeste 19 Norte 0 -- -- 53
2019-10-01 15:00:00 25.2 6 Norte 14 Nordeste 0 -- -- 52
2019-10-01 14:00:00 26.4 4 Norte 11 Sudeste 0 -- -- 49
2019-10-01 13:00:00 25.7 6 Sudeste 12 Sudeste 0 -- -- 52
2019-10-01 12:00:00 22.8 4 Este 6 Este 0 -- -- 59
2019-10-01 11:00:00 19.1 0 Calma 6 Noroeste 0 -- -- 72
2019-10-01 10:00:00 16.2 3 Noroeste 8 Oeste 0 -- -- 83
2019-10-01 09:00:00 12 2 Oeste 9 Sudoeste 0 -- -- 93
2019-10-01 08:00:00 11.6 3 Oeste 5 Oeste 0 -- -- 95
2019-10-01 07:00:00 11.6 0 Calma 7 Oeste 0 -- -- 93
2019-10-01 06:00:00 11.1 2 Sudoeste 4 Sudoeste 0 -- -- 94
2019-10-01 05:00:00 11.5 2 Oeste 5 Oeste 0 -- -- 93
2019-10-01 04:00:00 12.1 0 Calma 6 Norte 0 -- -- 92
2019-10-01 03:00:00 12.9 3 Sudoeste 4 Sur 0 -- -- 91
2019-10-01 02:00:00 13.9 0 Calma 6 Oeste 0 -- -- 87
2019-10-01 01:00:00 14.4 0 Calma 2 Norte 0 -- -- 87
2019-10-01 00:00:00 15.4 0 Calma 5 Noroeste 0 -- -- 84
2019-09-30 23:00:00 16.6 0 Calma 5 Noroeste 0 -- -- 82
2019-09-30 22:00:00 18.5 0 Calma 6 Este 0 -- -- 76
2019-09-30 21:00:00 20 3 Sudeste 6 Sudeste 0 -- -- 70
2019-09-30 20:00:00 23.6 2 Sudeste 9 Sudeste 0 -- -- 56
2019-09-30 19:00:00 29 6 Sudeste 12 Sudeste 0 -- -- 43
2019-09-30 18:00:00 30.1 7 Sudeste 13 Sudeste 0 -- -- 40
2019-09-30 17:00:00 29.6 5 Este 10 Este 0 -- -- 40
2019-09-30 16:00:00 27.9 4 Nordeste 22 Norte 0 -- -- 43
2019-09-30 15:00:00 28.1 4 Sudoeste 17 Norte 0 -- -- 44
2019-09-30 14:00:00 26.7 5 Noroeste 11 Noroeste 0 -- -- 48
2019-09-30 13:00:00 24.8 3 Sur 6 Sudeste 0 -- -- 54
2019-09-30 12:00:00 21.7 2 Sur 8 Este 0 -- -- 62
2019-09-30 11:00:00 18.3 3 Este 6 Este 0 -- -- 71
2019-09-30 10:00:00 14.3 3 Oeste 7 Sudoeste 0 -- -- 84
2019-09-30 09:00:00 10.4 0 Calma 4 Noroeste 0 -- -- 93
2019-09-30 08:00:00 9.6 0 Calma 5 Oeste 0 -- -- 93
2019-09-30 07:00:00 10.5 4 Oeste 6 Oeste 0 -- -- 92
2019-09-30 06:00:00 10.6 0 Calma 2 Norte 0 -- -- 90
2019-09-30 05:00:00 11.4 0 Calma 4 Noroeste 0 -- -- 88
2019-09-30 04:00:00 12.1 3 Oeste 9 Sudoeste 0 -- -- 81
2019-09-30 03:00:00 12 3 Oeste 6 Oeste 0 -- -- 79
2019-09-30 02:00:00 11.9 3 Oeste 5 Noroeste 0 -- -- 79
2019-09-30 01:00:00 12.8 0 Calma 5 Nordeste 0 -- -- 74
2019-09-30 00:00:00 15.2 2 Oeste 8 Este 0 -- -- 63
2019-09-29 23:00:00 17.7 5 Este 11 Este 0 -- -- 56
2019-09-29 22:00:00 19.2 4 Este 12 Este 0 -- -- 48
2019-09-29 21:00:00 20.4 6 Este 17 Nordeste 0 -- -- 46
2019-09-29 20:00:00 22.3 9 Este 24 Nordeste 0 -- -- 40
2019-09-29 19:00:00 29.2 10 Oeste 28 Oeste 0 -- -- 29
2019-09-29 18:00:00 30.3 14 Noroeste 32 Noroeste 0 -- -- 27
2019-09-29 17:00:00 30.2 18 Oeste 34 Sudoeste 0 -- -- 26
2019-09-29 16:00:00 29.4 15 Oeste 32 Oeste 0 -- -- 27
2019-09-29 15:00:00 29.1 16 Oeste 39 Sudoeste 0 -- -- 26
2019-09-29 14:00:00 28.2 17 Oeste 36 Oeste 0 -- -- 27
2019-09-29 13:00:00 27.2 3 Noroeste 18 Sur 0 -- -- 38
2019-09-29 12:00:00 24 7 Sudoeste 25 Sudoeste 0 -- -- 46
2019-09-29 11:00:00 22.1 8 Sur 22 Sur 0 -- -- 56
2019-09-29 10:00:00 15.2 3 Sur 13 Sudoeste 0 -- -- 82
2019-09-29 09:00:00 9.5 3 Norte 7 Oeste 0 -- -- 93
2019-09-29 08:00:00 8.6 3 Sudoeste 12 Sudeste 0 -- -- 95
2019-09-29 07:00:00 8.3 0 Calma 5 Norte 0 -- -- 95
2019-09-29 06:00:00 8.4 0 Calma 6 Norte 0 -- -- 94
2019-09-29 05:00:00 9.1 0 Calma 5 Oeste 0 -- -- 94
2019-09-29 04:00:00 10.1 3 Oeste 5 Oeste 0 -- -- 93
2019-09-29 03:00:00 10.2 0 Calma 8 Oeste 0 -- -- 91
2019-09-29 02:00:00 11.6 0 Calma 5 Noroeste 0 -- -- 90
2019-09-29 01:00:00 13 2 Norte 8 Este 0 -- -- 88
2019-09-29 00:00:00 13.9 2 Norte 5 Oeste 0 -- -- 85
2019-09-28 23:00:00 15.7 3 Noroeste 7 Oeste 0 -- -- 78
2019-09-28 22:00:00 17.6 3 Norte 7 Oeste 0 -- -- 72
2019-09-28 21:00:00 21.2 6 Sur 14 Sur 0 -- -- 57
2019-09-28 20:00:00 22.4 9 Sur 21 Sudeste 0 -- -- 53
2019-09-28 19:00:00 25.9 10 Sudeste 19 Sudeste 0 -- -- 44
2019-09-28 18:00:00 27.7 9 Sudeste 19 Este 0 -- -- 42
2019-09-28 17:00:00 27.5 8 Este 19 Sudeste 0 -- -- 43
2019-09-28 16:00:00 26.6 9 Sudeste 21 Sudeste 0 -- -- 47
2019-09-28 15:00:00 26.2 4 Este 21 Sudeste 0 -- -- 47
2019-09-28 14:00:00 24.3 5 Nordeste 13 Este 0 -- -- 54
2019-09-28 13:00:00 22.9 5 Sudeste 10 Este 0 -- -- 57
2019-09-28 12:00:00 21.8 3 Este 9 Oeste 0 -- -- 61
2019-09-28 11:00:00 19.3 4 Oeste 8 Sudoeste 0 -- -- 68
2019-09-28 10:00:00 16.3 0 Calma 5 Nordeste 0 -- -- 80
2019-09-28 09:00:00 15.4 0 Calma 5 Nordeste 0 -- -- 84
2019-09-28 08:00:00 15.2 0 Calma 6 Este 0 -- -- 84
2019-09-28 07:00:00 15.2 4 Nordeste 11 Nordeste 0 -- -- 85
2019-09-28 06:00:00 15.4 5 Nordeste 11 Este 0 -- -- 83
2019-09-28 05:00:00 15.4 4 Nordeste 8 Nordeste 0 -- -- 83
2019-09-28 04:00:00 15.4 4 Nordeste 9 Nordeste 0 -- -- 82
2019-09-28 03:00:00 15.5 5 Este 9 Este 0 -- -- 81
2019-09-28 02:00:00 15.6 4 Nordeste 9 Este 0 -- -- 81
2019-09-28 01:00:00 15.6 3 Nordeste 14 Nordeste 0 -- -- 81
2019-09-28 00:00:00 15.8 7 Nordeste 21 Nordeste 0 -- -- 80
2019-09-27 23:00:00 16.8 6 Nordeste 19 Nordeste 0 -- -- 82
2019-09-27 22:00:00 17 7 Nordeste 23 Nordeste 0 -- -- 81
2019-09-27 21:00:00 18 12 Nordeste 19 Nordeste 0 -- -- 78
2019-09-27 20:00:00 19.9 5 Nordeste 22 Nordeste 0 -- -- 69
2019-09-27 19:00:00 22.8 9 Nordeste 26 Oeste 0 -- -- 61
2019-09-27 18:00:00 27.3 15 Oeste 31 Oeste 0 -- -- 35
2019-09-27 17:00:00 27.4 15 Oeste 26 Oeste 0 -- -- 33
2019-09-27 16:00:00 27 8 Noroeste 22 Oeste 0 -- -- 34
2019-09-27 15:00:00 25.9 9 Norte 15 Norte 0 -- -- 37
2019-09-27 14:00:00 24.9 3 Noroeste 13 Noroeste 0 -- -- 43
2019-09-27 13:00:00 21.4 2 Oeste 7 Oeste 0 -- -- 59
2019-09-27 12:00:00 17 4 Norte 8 Norte 0 -- -- 79
2019-09-27 11:00:00 13.1 3 Norte 10 Noroeste 0 -- -- 94
2019-09-27 10:00:00 12.5 3 Noroeste 10 Oeste 0 -- -- 96
2019-09-27 09:00:00 12.3 6 Oeste 9 Oeste 0 -- -- 95
2019-09-27 08:00:00 12.8 4 Noroeste 6 Noroeste 0 -- -- 95
2019-09-27 07:00:00 12.5 4 Noroeste 8 Noroeste 0 -- -- 93
2019-09-27 06:00:00 12.1 5 Oeste 9 Sudoeste 0 -- -- 93
2019-09-27 05:00:00 11.9 4 Oeste 9 Norte 0 -- -- 93
2019-09-27 04:00:00 11.6 0 Calma 8 Oeste 0 -- -- 94
2019-09-27 03:00:00 10.9 0 Calma 4 Oeste 0 -- -- 93
2019-09-27 02:00:00 11.4 3 Noroeste 5 Oeste 0 -- -- 91
2019-09-27 01:00:00 12.8 3 Noroeste 6 Oeste 0 -- -- 92
2019-09-27 00:00:00 14.8 0 Calma 5 Este 0 -- -- 90
2019-09-26 23:00:00 16.8 3 Este 10 Este 0 -- -- 83
2019-09-26 22:00:00 18.1 3 Nordeste 10 Nordeste 0 -- -- 79
2019-09-26 21:00:00 20.1 6 Nordeste 14 Sudeste 0 -- -- 71
2019-09-26 20:00:00 22.8 7 Este 14 Nordeste 0 -- -- 58
2019-09-26 19:00:00 28.5 7 Oeste 21 Sudoeste 0 -- -- 29
2019-09-26 18:00:00 28.9 9 Oeste 22 Sudoeste 0 -- -- 32
2019-09-26 17:00:00 28.4 10 Oeste 28 Oeste 0 -- -- 35
2019-09-26 16:00:00 27.5 4 Sudeste 13 Sudeste 0 -- -- 42
2019-09-26 15:00:00 27.3 5 Este 13 Este 0 -- -- 45
2019-09-26 14:00:00 25.9 4 Este 13 Este 0 -- -- 48
2019-09-26 13:00:00 23.8 3 Norte 8 Este 0 -- -- 52
2019-09-26 12:00:00 21.3 4 Sudeste 10 Sudeste 0 -- -- 61
2019-09-26 11:00:00 17.6 3 Norte 5 Nordeste 0 -- -- 73
2019-09-26 10:00:00 13.7 2 Noroeste 5 Oeste 0 -- -- 91
2019-09-26 09:00:00 10.8 3 Noroeste 5 Norte 0 -- -- 95
2019-09-26 08:00:00 9.7 0 Calma 5 Sudoeste 0 -- -- 96
2019-09-26 07:00:00 9.7 0 Calma 3 Norte 0 -- -- 95
2019-09-26 06:00:00 10.4 0 Calma 4 Oeste 0 -- -- 95
2019-09-26 05:00:00 10.6 0 Calma 4 Oeste 0 -- -- 94
2019-09-26 04:00:00 10.9 2 Noroeste 4 Sudoeste 0 -- -- 94
2019-09-26 03:00:00 11.5 2 Oeste 4 Noroeste 0 -- -- 93
2019-09-26 02:00:00 12.5 0 Calma 5 Nordeste 0 -- -- 91
2019-09-26 01:00:00 13 2 Norte 6 Norte 0 -- -- 89
2019-09-26 00:00:00 14.3 0 Calma 8 Este 0 -- -- 83
2019-09-25 23:00:00 15.8 5 Este 9 Este 0 -- -- 78
2019-09-25 22:00:00 16.5 3 Nordeste 14 Este 0 -- -- 75
2019-09-25 21:00:00 17.8 6 Este 14 Este 0 -- -- 70
2019-09-25 20:00:00 19.3 7 Este 17 Nordeste 0 -- -- 62
2019-09-25 19:00:00 22 9 Nordeste 21 Nordeste 0 -- -- 53
2019-09-25 18:00:00 23.9 3 Nordeste 17 Este 0 -- -- 45
2019-09-25 17:00:00 23.2 3 Este 10 Sudoeste 0 -- -- 46
2019-09-25 16:00:00 23.3 5 Sudeste 12 Sudeste 0 -- -- 46
2019-09-25 15:00:00 23.4 5 Noroeste 13 Noroeste 0 -- -- 45
2019-09-25 14:00:00 22.7 6 Noroeste 15 Noroeste 0 -- -- 48
2019-09-25 13:00:00 21.1 8 Nordeste 17 Nordeste 0 -- -- 53
2019-09-25 12:00:00 20.2 4 Nordeste 10 Oeste 0 -- -- 55
2019-09-25 11:00:00 19.5 3 Noroeste 8 Sudoeste 0 -- -- 58
2019-09-25 10:00:00 16.2 3 Noroeste 6 Noroeste 0 -- -- 82
2019-09-25 09:00:00 13.7 0 Calma 5 Oeste 0 -- -- 92
2019-09-25 08:00:00 13 3 Noroeste 4 Noroeste 0 -- -- 92
2019-09-25 07:00:00 14.3 3 Noroeste 3 Norte 0 -- -- 89
2019-09-25 06:00:00 14.3 0 Calma 3 Noroeste 0 -- -- 87
2019-09-25 05:00:00 15 2 Norte 5 Este 0 -- -- 84
2019-09-25 04:00:00 15.3 2 Nordeste 8 Este 0 -- -- 83
2019-09-25 03:00:00 15.4 4 Nordeste 8 Nordeste 0 -- -- 82
2019-09-25 02:00:00 15.5 4 Este 13 Nordeste 0 -- -- 83
2019-09-25 01:00:00 15.6 5 Este 16 Nordeste 0 -- -- 81
2019-09-25 00:00:00 16 7 Nordeste 22 Nordeste 0 -- -- 80
2019-09-24 23:00:00 16.9 8 Nordeste 17 Nordeste 0 -- -- 78
2019-09-24 22:00:00 17.1 8 Este 15 Este 0 -- -- 76
2019-09-24 21:00:00 17.3 7 Nordeste 18 Nordeste 0 -- -- 75
2019-09-24 20:00:00 18.5 10 Este 23 Nordeste 0 -- -- 74
2019-09-24 19:00:00 23.2 3 Este 14 Oeste 0 -- -- 62
2019-09-24 18:00:00 25.4 6 Noroeste 19 Oeste 0 -- -- 53
2019-09-24 17:00:00 25.1 6 Noroeste 29 Sudoeste 0 -- -- 54
2019-09-24 16:00:00 22.7 15 Sudoeste 38 Oeste 0 -- -- 60
2019-09-24 15:00:00 22.2 21 Oeste 39 Sudoeste 0 -- -- 60
2019-09-24 14:00:00 22.3 21 Oeste 41 Oeste 0 -- -- 58
2019-09-24 13:00:00 21.6 17 Oeste 45 Sudoeste 0 -- -- 61
2019-09-24 12:00:00 20.1 23 Oeste 44 Oeste 0 -- -- 62
2019-09-24 11:00:00 19.1 15 Oeste 40 Oeste 0 -- -- 65
2019-09-24 10:00:00 17.7 23 Oeste 45 Sudoeste 0 -- -- 66
2019-09-24 09:00:00 17.7 15 Sudoeste 33 Sudoeste 0 -- -- 63
2019-09-24 08:00:00 17.5 8 Sudoeste 28 Sudoeste 0 -- -- 64
2019-09-24 07:00:00 18 13 Oeste 30 Oeste 0 -- -- 62
2019-09-24 06:00:00 18.5 12 Oeste 23 Sudoeste 0 -- -- 58
2019-09-24 05:00:00 19 12 Oeste 28 Oeste 0 -- -- 54
2019-09-24 04:00:00 19.3 14 Oeste 22 Noroeste 0 -- -- 52
2019-09-24 03:00:00 19.7 13 Oeste 25 Sudoeste 0 -- -- 51
2019-09-24 02:00:00 16.4 5 Sudeste 9 Sudeste 0 -- -- 70
2019-09-24 01:00:00 16.8 4 Sur 8 Sur 0 -- -- 68
2019-09-24 00:00:00 18.4 2 Sur 10 Sur 0 -- -- 64
2019-09-23 23:00:00 20.5 8 Sudoeste 15 Oeste 0 -- -- 55
2019-09-23 22:00:00 21.3 8 Sudoeste 19 Oeste 0 -- -- 50
2019-09-23 21:00:00 20.6 6 Oeste 15 Sudoeste 0 -- -- 53
2019-09-23 20:00:00 21 5 Noroeste 27 Sudoeste 0 -- -- 52
2019-09-23 19:00:00 22.2 12 Oeste 23 Sudoeste 0 -- -- 47
2019-09-23 18:00:00 22.3 8 Oeste 28 Oeste 0 -- -- 48
2019-09-23 17:00:00 22.7 15 Oeste 29 Oeste 0 -- -- 46
2019-09-23 16:00:00 21.9 10 Oeste 34 Sudoeste 0 -- -- 49
2019-09-23 15:00:00 20.6 18 Oeste 34 Oeste 0 -- -- 50
2019-09-23 14:00:00 20 9 Oeste 21 Oeste 0 -- -- 56
2019-09-23 13:00:00 18.6 10 Sudoeste 23 Oeste 0 -- -- 60
2019-09-23 12:00:00 17.7 8 Oeste 13 Oeste 0 -- -- 62
2019-09-23 11:00:00 16.4 2 Sur 8 Sudeste 0 -- -- 72
2019-09-23 10:00:00 13.2 3 Este 6 Este 0 -- -- 95
2019-09-23 09:00:00 10.4 0 Calma 4 Sur 0 -- -- 96
2019-09-23 08:00:00 10.1 2 Sur 6 Sudoeste 0 -- -- 96
2019-09-23 07:00:00 9.6 3 Oeste 4 Oeste 0 -- -- 96
2019-09-23 06:00:00 9.4 0 Calma 3 Norte 0 -- -- 96
2019-09-23 05:00:00 9.5 0 Calma 3 Oeste 0 -- -- 95
2019-09-23 04:00:00 9.7 0 Calma 3 Noroeste 0 -- -- 94
2019-09-23 03:00:00 10.4 0 Calma 6 Oeste 0 -- -- 93
2019-09-23 02:00:00 11.4 4 Oeste 8 Oeste 0 -- -- 91
2019-09-23 01:00:00 11.5 5 Oeste 9 Oeste 0 -- -- 93
2019-09-23 00:00:00 12.3 4 Oeste 6 Oeste 0 -- -- 91
2019-09-22 23:00:00 13.3 0 Calma 9 Nordeste 0 -- -- 86
2019-09-22 22:00:00 14.1 0 Calma 10 Norte 0 -- -- 85
2019-09-22 21:00:00 15.9 4 Nordeste 14 Nordeste 0 -- -- 78
2019-09-22 20:00:00 18 4 Nordeste 21 Oeste 0 -- -- 69
2019-09-22 19:00:00 22.7 11 Oeste 26 Sudoeste 0 -- -- 35
2019-09-22 18:00:00 22.8 16 Oeste 32 Oeste 0 -- -- 37
2019-09-22 17:00:00 23.3 13 Oeste 37 Oeste 0 -- -- 38
2019-09-22 16:00:00 22 14 Oeste 32 Oeste 0 -- -- 41
2019-09-22 15:00:00 21.1 14 Oeste 33 Sudoeste 0 -- -- 51
2019-09-22 14:00:00 20.4 13 Oeste 34 Oeste 0 -- -- 54
2019-09-22 13:00:00 18.9 18 Oeste 32 Sudoeste 0 -- -- 59
2019-09-22 12:00:00 17.8 17 Oeste 39 Oeste 0 -- -- 66
2019-09-22 11:00:00 17.1 10 Oeste 22 Oeste 0 -- -- 72
2019-09-22 10:00:00 16 13 Oeste 35 Sudoeste 0 -- -- 73
2019-09-22 09:00:00 15.3 11 Sudoeste 23 Sudoeste 0 -- -- 79
2019-09-22 08:00:00 14.9 9 Sudoeste 28 Sudoeste 0 -- -- 83
2019-09-22 07:00:00 15.4 11 Sudoeste 26 Oeste 0.2 -- -- 85
2019-09-22 06:00:00 15.9 9 Oeste 31 Oeste 3.2 -- -- 87
2019-09-22 05:00:00 17.7 3 Sudeste 9 Oeste 0.8 -- -- 86
2019-09-22 04:00:00 19.3 4 Sudoeste 15 Sudoeste 0 -- -- 73
2019-09-22 03:00:00 20 4 Oeste 14 Oeste 0 -- -- 69
2019-09-22 02:00:00 19.3 0 Calma 11 Sur 0 -- -- 73
2019-09-22 01:00:00 19.3 5 Sudoeste 13 Sudoeste 0 -- -- 73
2019-09-22 00:00:00 19.3 3 Sur 8 Sur 0 -- -- 74
2019-09-21 23:00:00 20 4 Sur 13 Sur 0 -- -- 68
2019-09-21 22:00:00 19.9 2 Sur 11 Sur 0 -- -- 71
2019-09-21 21:00:00 20.5 7 Sur 20 Sudoeste 0 -- -- 67
2019-09-21 20:00:00 21.4 8 Sudoeste 37 Oeste 0 -- -- 62
2019-09-21 19:00:00 22.3 15 Sudoeste 29 Oeste 0 -- -- 58
2019-09-21 18:00:00 23.1 14 Oeste 28 Oeste 0 -- -- 55
2019-09-21 17:00:00 24.2 8 Sudoeste 25 Sur 0 -- -- 52
2019-09-21 16:00:00 23.1 8 Sudeste 17 Sudeste 0 -- -- 66
2019-09-21 15:00:00 23.4 9 Sur 22 Sur 0 -- -- 66
2019-09-21 14:00:00 23.2 14 Sudeste 28 Sudeste 0 -- -- 68
2019-09-21 13:00:00 24.2 10 Sur 20 Sur 0 -- -- 62
2019-09-21 12:00:00 20.6 9 Sudeste 28 Sudeste 0 -- -- 75
2019-09-21 11:00:00 20.7 9 Sudeste 20 Sudeste 0 -- -- 75
2019-09-21 10:00:00 19.1 12 Sudeste 27 Sudeste 0 -- -- 85
2019-09-21 09:00:00 17.6 10 Sudeste 25 Sudeste 0 -- -- 88
2019-09-21 08:00:00 16.9 5 Sur 17 Sur 0 -- -- 90
2019-09-21 07:00:00 16.2 8 Sur 19 Sur 0 -- -- 92
2019-09-21 06:00:00 16.1 9 Sudeste 20 Sudeste 0 -- -- 93
2019-09-21 05:00:00 15.9 0 Calma 30 Sudeste 0 -- -- 93
2019-09-21 04:00:00 16.4 12 Sudeste 28 Sur 0 -- -- 93
2019-09-21 03:00:00 16.2 6 Sudoeste 29 Sudeste 0.4 -- -- 95
2019-09-21 02:00:00 16.5 19 Sudeste 41 Sudeste 2.2 -- -- 94
2019-09-21 01:00:00 15.2 3 Noroeste 8 Noroeste 0 -- -- 96
2019-09-21 00:00:00 15.5 5 Noroeste 14 Sudoeste 0 -- -- 95
2019-09-20 23:00:00 16.5 6 Oeste 14 Oeste 1.2 -- -- 94
2019-09-20 22:00:00 16.6 6 Este 26 Sudoeste 6.8 -- -- 92
2019-09-20 21:00:00 16.5 22 Sudoeste 58 Sudoeste 11.4 -- -- 87
2019-09-20 20:00:00 20.5 9 Noroeste 24 Noroeste 0.2 -- -- 67
2019-09-20 19:00:00 22.1 9 Sudeste 34 Sudeste 0.2 -- -- 72
2019-09-20 18:00:00 25.3 14 Sudeste 28 Sur 0 -- -- 56
2019-09-20 17:00:00 25.8 15 Sudeste 35 Sur 0 -- -- 56
2019-09-20 16:00:00 27.7 20 Sudeste 33 Sur 0 -- -- 51
2019-09-20 15:00:00 26.7 14 Sudeste 34 Sudeste 0 -- -- 54
2019-09-20 14:00:00 27.6 18 Sudeste 32 Este 0 -- -- 52
2019-09-20 13:00:00 26 6 Este 13 Este 0 -- -- 55
2019-09-20 12:00:00 24.6 2 Nordeste 8 Norte 0 -- -- 61
2019-09-20 11:00:00 21.4 3 Norte 6 Nordeste 0 -- -- 73
2019-09-20 10:00:00 16 0 Calma 4 Sudeste 0 -- -- 94
2019-09-20 09:00:00 13.5 0 Calma 5 Noroeste 0 -- -- 96
2019-09-20 08:00:00 12.4 0 Calma 3 Sur 0 -- -- 96
2019-09-20 07:00:00 12.5 0 Calma 3 Noroeste 0 -- -- 96
2019-09-20 06:00:00 13 2 Sur 4 Sur 0 -- -- 96
2019-09-20 05:00:00 13.5 0 Calma 6 Sudoeste 0 -- -- 95
2019-09-20 04:00:00 13.7 2 Noroeste 3 Oeste 0 -- -- 95
2019-09-20 03:00:00 14.4 0 Calma 4 Noroeste 0 -- -- 94
2019-09-20 02:00:00 15.1 0 Calma 7 Oeste 0 -- -- 92
2019-09-20 01:00:00 16.1 4 Oeste 8 Oeste 0 -- -- 90
2019-09-20 00:00:00 17.7 5 Oeste 10 Oeste 0 -- -- 84
2019-09-19 23:00:00 19.2 4 Este 9 Nordeste 0 -- -- 77
2019-09-19 22:00:00 19.6 5 Nordeste 12 Nordeste 0 -- -- 76
2019-09-19 21:00:00 21.1 2 Nordeste 16 Este 0 -- -- 74
2019-09-19 20:00:00 23.3 8 Nordeste 18 Nordeste 0 -- -- 64
2019-09-19 19:00:00 25.4 9 Nordeste 18 Nordeste 0 -- -- 56
2019-09-19 18:00:00 28 5 Nordeste 14 Nordeste 0 -- -- 49
2019-09-19 17:00:00 28.4 4 Norte 14 Sudeste 0 -- -- 45
2019-09-19 16:00:00 27.5 5 Norte 14 Nordeste 0 -- -- 48
2019-09-19 15:00:00 26.3 5 Nordeste 14 Este 0 -- -- 50
2019-09-19 14:00:00 24.7 3 Sur 13 Nordeste 0 -- -- 54
2019-09-19 13:00:00 22.7 4 Noroeste 12 Este 0 -- -- 62
2019-09-19 12:00:00 21.1 3 Este 8 Este 0 -- -- 69
2019-09-19 11:00:00 17.9 3 Noroeste 6 Oeste 0 -- -- 82
2019-09-19 10:00:00 14.1 0 Calma 4 Norte 0 -- -- 95
2019-09-19 09:00:00 12.4 2 Noroeste 6 Norte 0 -- -- 97
2019-09-19 08:00:00 11.1 2 Noroeste 4 Noroeste 0 -- -- 97
2019-09-19 07:00:00 11.8 2 Noroeste 5 Oeste 0 -- -- 97
2019-09-19 06:00:00 12 2 Oeste 5 Oeste 0 -- -- 97
2019-09-19 05:00:00 12.3 3 Noroeste 5 Oeste 0 -- -- 97
2019-09-19 04:00:00 12.8 2 Noroeste 5 Noroeste 0 -- -- 96
2019-09-19 03:00:00 13.4 0 Calma 4 Noroeste 0 -- -- 96
2019-09-19 02:00:00 14 0 Calma 4 Oeste 0 -- -- 95
2019-09-19 01:00:00 15 4 Oeste 8 Oeste 0 -- -- 95
2019-09-19 00:00:00 15.6 0 Calma 4 Noroeste 0 -- -- 93
2019-09-18 23:00:00 16.3 2 Sudeste 6 Sudeste 0 -- -- 91
2019-09-18 22:00:00 17.9 5 Este 8 Este 0 -- -- 86
2019-09-18 21:00:00 19.1 0 Calma 5 Nordeste 0 -- -- 82
2019-09-18 20:00:00 20.3 2 Nordeste 10 Nordeste 0 -- -- 78
2019-09-18 19:00:00 20.9 4 Norte 14 Nordeste 0 -- -- 74
2019-09-18 18:00:00 21 5 Nordeste 12 Nordeste 0 -- -- 76
2019-09-18 17:00:00 21.1 5 Sudeste 15 Nordeste 0 -- -- 77
2019-09-18 16:00:00 21.1 7 Nordeste 18 Este 0 -- -- 75
2019-09-18 15:00:00 22.4 8 Este 16 Este 0 -- -- 73
2019-09-18 14:00:00 22.8 2 Oeste 10 Noroeste 0 -- -- 71
2019-09-18 13:00:00 22.6 2 Norte 6 Este 0 -- -- 73
2019-09-18 12:00:00 19 3 Sudeste 6 Sudeste 0 -- -- 85
2019-09-18 11:00:00 17.8 0 Calma 8 Sudeste 0 -- -- 89
2019-09-18 10:00:00 17.2 2 Nordeste 4 Noroeste 0 -- -- 90
2019-09-18 09:00:00 16.4 4 Norte 6 Sur 0 -- -- 93
2019-09-18 08:00:00 15.8 3 Sudeste 8 Sur 0 -- -- 94
2019-09-18 07:00:00 15.9 4 Nordeste 10 Este 0 -- -- 94
2019-09-18 06:00:00 15.9 2 Este 9 Noroeste 0 -- -- 92
2019-09-18 05:00:00 17.5 6 Oeste 16 Oeste 0.2 -- -- 84
2019-09-18 04:00:00 17.2 12 Oeste 37 Oeste 4.8 -- -- 84
2019-09-18 03:00:00 18.8 17 Sudoeste 42 Sudoeste 0 -- -- 76
2019-09-18 02:00:00 18.3 4 Sudoeste 11 Sur 0 -- -- 82
2019-09-18 01:00:00 18.4 0 Calma 8 Noroeste 0 -- -- 82
2019-09-18 00:00:00 19.2 2 Este 9 Noroeste 0 -- -- 81
2019-09-17 23:00:00 19.9 3 Noroeste 11 Este 0 -- -- 80
2019-09-17 22:00:00 21.1 2 Norte 9 Nordeste 0 -- -- 76
2019-09-17 21:00:00 22.8 4 Nordeste 14 Nordeste 0 -- -- 72